Time;durP1;ratioP1;P1;durP2;ratioP2;P2;SDS_P1;SDS_P2;PMS_P1;PMS_P2;Temp;Humidity;BMP_temperature;BMP_pressure;BME280_temperature;BME280_humidity;BME280_pressure;Samples;Min_cycle;Max_cycle;Signal;HPM_P1;HPM_P2
2023/05/09 00:00:15;;;;;;;32.67;21.52;;;15.10;99.90;;;;;;5119236;28;20028;-60
2023/05/09 00:02:44;;;;;;;35.40;21.73;;;15.10;99.90;;;;;;5117834;28;20495;-60
2023/05/09 00:05:11;;;;;;;32.05;21.73;;;15.00;99.90;;;;;;5122161;28;20050;-60
2023/05/09 00:07:37;;;;;;;32.22;20.70;;;15.00;99.90;;;;;;5126424;28;20148;-60
2023/05/09 00:10:03;;;;;;;36.88;23.10;;;15.10;99.90;;;;;;5128361;28;20050;-60
2023/05/09 00:12:29;;;;;;;33.95;20.77;;;15.10;99.90;;;;;;5128780;27;20113;-59
2023/05/09 00:14:55;;;;;;;43.60;24.65;;;15.00;99.90;;;;;;5099694;28;20506;-59
2023/05/09 00:17:22;;;;;;;38.83;22.35;;;15.00;99.90;;;;;;5094045;28;20144;-60
2023/05/09 00:19:49;;;;;;;33.85;21.27;;;15.00;99.90;;;;;;5122354;27;20289;-60
2023/05/09 00:22:17;;;;;;;54.83;29.10;;;14.90;99.90;;;;;;5097238;28;20051;-60
2023/05/09 00:24:43;;;;;;;53.80;28.40;;;14.90;99.90;;;;;;5114629;28;20158;-59
2023/05/09 00:27:09;;;;;;;50.08;27.80;;;14.90;99.90;;;;;;5123516;28;20303;-60
2023/05/09 00:29:35;;;;;;;42.13;24.85;;;14.80;99.90;;;;;;5113312;28;20039;-61
2023/05/09 00:32:01;;;;;;;53.42;29.73;;;14.70;99.90;;;;;;5115294;27;20503;-60
2023/05/09 00:34:26;;;;;;;44.75;24.13;;;14.60;99.90;;;;;;5118121;27;20051;-59
2023/05/09 00:36:52;;;;;;;32.60;21.85;;;14.60;99.90;;;;;;5119089;27;20039;-60
2023/05/09 00:39:18;;;;;;;51.08;28.48;;;14.50;99.90;;;;;;5124913;27;20131;-59
2023/05/09 00:41:43;;;;;;;37.55;23.73;;;14.50;99.90;;;;;;5123076;27;20043;-61
2023/05/09 00:44:09;;;;;;;50.90;27.60;;;14.50;99.90;;;;;;5132088;27;20096;-60
2023/05/09 00:46:35;;;;;;;48.00;27.63;;;14.60;99.90;;;;;;5118831;27;20410;-60
2023/05/09 00:49:01;;;;;;;49.08;26.67;;;14.60;99.90;;;;;;5127970;27;20115;-60
2023/05/09 00:51:28;;;;;;;41.65;24.55;;;14.50;99.90;;;;;;5130138;27;20043;-60
2023/05/09 00:53:53;;;;;;;47.65;26.70;;;14.50;99.90;;;;;;5131694;27;20559;-60
2023/05/09 00:56:20;;;;;;;47.30;26.65;;;14.50;99.90;;;;;;5126561;27;20070;-61
2023/05/09 00:58:47;;;;;;;48.22;27.10;;;14.50;99.90;;;;;;5121607;27;20091;-60
2023/05/09 01:01:12;;;;;;;37.38;22.98;;;14.50;99.90;;;;;;5113534;27;20397;-60
2023/05/09 01:03:40;;;;;;;48.65;26.77;;;14.50;99.90;;;;;;5129899;27;20047;-60
2023/05/09 01:06:43;;;;;;;51.42;28.45;;;14.50;99.90;;;;;;5129064;27;20046;-60
2023/05/09 01:09:12;;;;;;;36.17;22.33;;;14.50;99.90;;;;;;5122669;27;20049;-60
2023/05/09 01:12:04;;;;;;;47.05;27.92;;;14.50;99.90;;;;;;5132488;27;20086;-58
2023/05/09 01:14:37;;;;;;;43.80;25.58;;;14.50;99.90;;;;;;5093261;27;20521;-60
2023/05/09 01:17:08;;;;;;;34.00;21.60;;;14.60;99.90;;;;;;5132217;27;20499;-60
2023/05/09 01:19:53;;;;;;;38.33;23.33;;;14.60;99.90;;;;;;5128192;27;20194;-60
2023/05/09 01:22:30;;;;;;;34.63;21.35;;;14.60;99.90;;;;;;5110912;27;20043;-60
2023/05/09 01:25:05;;;;;;;50.42;28.45;;;14.70;99.90;;;;;;5104608;27;20043;-60
2023/05/09 01:28:05;;;;;;;37.05;21.35;;;14.70;99.90;;;;;;5114079;27;20418;-60
2023/05/09 01:30:34;;;;;;;41.15;25.45;;;14.70;99.90;;;;;;5120764;27;20059;-59
2023/05/09 01:33:06;;;;;;;42.70;25.45;;;14.70;99.90;;;;;;5110670;28;20427;-60
2023/05/09 01:35:34;;;;;;;37.40;21.33;;;14.70;99.90;;;;;;5123386;27;20385;-61
2023/05/09 01:38:03;;;;;;;56.08;29.50;;;14.70;99.90;;;;;;5102435;28;20475;-60
2023/05/09 01:40:32;;;;;;;49.20;26.27;;;14.70;99.90;;;;;;5122091;27;20054;-59
2023/05/09 01:43:02;;;;;;;42.17;25.05;;;14.70;99.90;;;;;;5122585;27;20065;-60
2023/05/09 01:45:30;;;;;;;48.00;29.35;;;14.70;99.90;;;;;;5131744;27;20566;-60
2023/05/09 01:47:57;;;;;;;42.75;25.30;;;14.70;99.90;;;;;;5132136;27;20067;-60
2023/05/09 01:50:23;;;;;;;56.50;30.30;;;14.70;99.90;;;;;;5131946;27;20039;-60
2023/05/09 01:52:52;;;;;;;43.92;25.17;;;14.70;99.90;;;;;;5102451;27;20320;-60
2023/05/09 01:55:20;;;;;;;48.72;28.48;;;14.70;99.90;;;;;;5128510;27;20105;-59
2023/05/09 01:57:46;;;;;;;39.40;24.75;;;14.80;99.90;;;;;;5127699;27;20043;-60
2023/05/09 02:00:13;;;;;;;45.00;28.35;;;14.80;99.90;;;;;;5128472;27;20104;-60
2023/05/09 02:02:40;;;;;;;51.60;29.45;;;14.80;99.90;;;;;;5128451;27;20039;-60
2023/05/09 02:05:09;;;;;;;44.50;27.58;;;14.80;99.90;;;;;;5124608;27;20067;-60
2023/05/09 02:07:35;;;;;;;54.45;30.40;;;14.80;99.90;;;;;;5131852;27;20042;-60
2023/05/09 02:10:02;;;;;;;59.10;30.77;;;14.80;99.90;;;;;;5130103;27;20504;-60
2023/05/09 02:12:28;;;;;;;40.03;25.35;;;14.90;99.90;;;;;;5125415;27;20075;-59
2023/05/09 02:14:54;;;;;;;54.58;30.38;;;14.80;99.90;;;;;;5121108;27;20066;-59
2023/05/09 02:17:20;;;;;;;54.00;30.08;;;14.80;99.90;;;;;;5126995;27;20689;-60
2023/05/09 02:19:46;;;;;;;47.05;26.48;;;14.80;99.90;;;;;;5123166;27;20039;-59
2023/05/09 02:22:12;;;;;;;47.95;27.67;;;14.80;99.90;;;;;;5129475;27;20054;-59
2023/05/09 02:24:39;;;;;;;49.47;28.90;;;14.80;99.90;;;;;;5122968;27;20039;-60
2023/05/09 02:27:06;;;;;;;46.85;26.20;;;14.80;99.90;;;;;;5120055;27;20088;-61
2023/05/09 02:29:39;;;;;;;43.92;27.00;;;14.80;99.90;;;;;;5122771;27;20031;-60
2023/05/09 02:32:10;;;;;;;44.35;26.40;;;14.80;99.90;;;;;;5114270;27;20050;-61
2023/05/09 02:34:37;;;;;;;56.47;30.70;;;14.80;99.90;;;;;;5120773;27;20051;-60
2023/05/09 02:37:03;;;;;;;48.33;29.70;;;14.80;99.90;;;;;;5128748;27;20039;-60
2023/05/09 02:39:29;;;;;;;48.85;28.20;;;14.80;99.90;;;;;;5118974;27;20517;-61
2023/05/09 02:41:55;;;;;;;55.17;29.77;;;14.80;99.90;;;;;;5122700;27;20039;-60
2023/05/09 02:44:21;;;;;;;54.45;30.98;;;14.80;99.90;;;;;;5122556;27;20046;-60
2023/05/09 02:46:46;;;;;;;53.50;29.95;;;14.80;99.90;;;;;;5130713;27;20035;-60
2023/05/09 02:49:12;;;;;;;51.83;29.55;;;14.80;99.90;;;;;;5130956;27;20122;-60
2023/05/09 02:51:38;;;;;;;53.28;31.10;;;14.80;99.90;;;;;;5124609;27;20482;-60
2023/05/09 02:54:03;;;;;;;49.60;29.00;;;14.80;99.90;;;;;;5118536;27;20124;-60
2023/05/09 02:56:29;;;;;;;55.10;30.40;;;14.80;99.90;;;;;;5125602;27;20039;-60
2023/05/09 02:58:55;;;;;;;55.78;31.73;;;14.80;99.90;;;;;;5126911;27;20036;-60
2023/05/09 03:01:20;;;;;;;50.42;30.52;;;14.80;99.90;;;;;;5121755;27;20097;-60
2023/05/09 03:03:46;;;;;;;53.25;32.10;;;14.80;99.90;;;;;;5127202;27;20042;-60
2023/05/09 03:06:13;;;;;;;60.08;32.80;;;14.80;99.90;;;;;;5128433;27;20043;-60
2023/05/09 03:08:38;;;;;;;48.35;28.42;;;14.80;99.90;;;;;;5124356;27;20046;-60
2023/05/09 03:11:04;;;;;;;49.83;27.75;;;14.80;99.90;;;;;;5129998;27;20039;-60
2023/05/09 03:13:30;;;;;;;60.75;31.70;;;14.80;99.90;;;;;;5119628;27;20104;-60
2023/05/09 03:15:56;;;;;;;60.65;34.08;;;14.80;99.90;;;;;;5099815;28;20024;-60
2023/05/09 03:18:21;;;;;;;58.90;33.08;;;14.80;99.90;;;;;;5120624;27;20074;-60
2023/05/09 03:20:47;;;;;;;60.67;32.67;;;14.80;99.90;;;;;;5130529;27;20445;-61
2023/05/09 03:23:13;;;;;;;62.60;32.47;;;14.80;99.90;;;;;;5130028;27;20153;-60
2023/05/09 03:25:38;;;;;;;52.33;29.25;;;14.80;99.90;;;;;;5121774;27;20035;-60
2023/05/09 03:28:04;;;;;;;64.80;34.78;;;14.80;99.90;;;;;;5112232;27;20039;-60
2023/05/09 03:30:30;;;;;;;83.97;38.55;;;14.80;99.90;;;;;;5124050;27;20100;-61
2023/05/09 03:32:55;;;;;;;48.58;29.00;;;14.80;99.90;;;;;;5124062;27;20088;-61
2023/05/09 03:35:21;;;;;;;64.35;34.00;;;14.80;99.90;;;;;;5121230;27;20048;-60
2023/05/09 03:37:47;;;;;;;69.50;37.63;;;14.80;99.90;;;;;;5126205;27;20043;-60
2023/05/09 03:40:13;;;;;;;56.88;32.15;;;14.70;99.90;;;;;;5119855;27;20071;-61
2023/05/09 03:42:38;;;;;;;50.97;29.50;;;14.80;99.90;;;;;;5126462;27;20039;-60
2023/05/09 03:45:04;;;;;;;53.90;30.73;;;14.80;99.90;;;;;;5130184;27;20031;-60
2023/05/09 03:47:30;;;;;;;71.57;36.10;;;14.70;99.90;;;;;;5119850;28;20048;-59
2023/05/09 03:49:56;;;;;;;57.72;32.15;;;14.70;99.90;;;;;;5118455;27;20695;-60
2023/05/09 03:52:21;;;;;;;57.65;33.67;;;14.80;99.90;;;;;;5126118;27;20100;-59
2023/05/09 03:54:47;;;;;;;68.53;36.97;;;14.80;99.90;;;;;;5127958;27;20031;-60
2023/05/09 03:57:13;;;;;;;66.07;33.28;;;14.80;99.90;;;;;;5123183;27;20043;-60
2023/05/09 03:59:38;;;;;;;65.78;34.75;;;14.80;99.90;;;;;;5108425;27;20513;-59
2023/05/09 04:02:04;;;;;;;53.40;32.35;;;14.70;99.90;;;;;;5123730;28;20074;-59
2023/05/09 04:04:30;;;;;;;52.80;30.42;;;14.80;99.90;;;;;;5118469;28;20043;-60
2023/05/09 04:06:56;;;;;;;63.38;34.40;;;14.80;99.90;;;;;;5096215;28;20406;-60
2023/05/09 04:09:21;;;;;;;53.03;30.02;;;14.80;99.90;;;;;;5115098;27;20429;-60
2023/05/09 04:11:47;;;;;;;46.97;26.33;;;14.80;99.90;;;;;;5133595;27;20039;-60
2023/05/09 04:14:13;;;;;;;49.50;27.98;;;14.80;99.90;;;;;;5133183;27;20584;-60
2023/05/09 04:16:38;;;;;;;67.25;35.72;;;14.80;99.90;;;;;;5119650;27;20036;-60
2023/05/09 04:19:06;;;;;;;64.75;33.53;;;14.80;99.90;;;;;;5115234;27;20087;-60
2023/05/09 04:21:31;;;;;;;69.40;37.03;;;14.90;99.90;;;;;;5109896;27;20496;-60
2023/05/09 04:23:57;;;;;;;54.90;30.58;;;14.90;99.90;;;;;;5130376;27;20067;-59
2023/05/09 04:26:23;;;;;;;66.03;35.90;;;14.90;99.90;;;;;;5126325;27;20050;-60
2023/05/09 04:28:49;;;;;;;64.07;36.47;;;14.90;99.90;;;;;;5131496;27;20046;-60
2023/05/09 04:31:16;;;;;;;70.30;38.65;;;14.90;99.90;;;;;;5123042;27;20398;-60
2023/05/09 04:33:41;;;;;;;66.45;35.92;;;14.90;99.90;;;;;;5133109;27;20036;-60
2023/05/09 04:36:07;;;;;;;64.72;36.10;;;14.90;99.90;;;;;;5109991;27;20039;-60
2023/05/09 04:38:33;;;;;;;64.70;35.45;;;14.90;99.90;;;;;;5127309;27;20039;-57
2023/05/09 04:41:00;;;;;;;65.47;35.85;;;15.00;99.90;;;;;;5116683;27;20130;-63
2023/05/09 04:43:26;;;;;;;64.05;34.63;;;15.00;99.90;;;;;;5127247;27;20036;-61
2023/05/09 04:45:53;;;;;;;67.28;36.88;;;15.00;99.90;;;;;;5135715;27;20558;-61
2023/05/09 04:48:18;;;;;;;73.30;39.10;;;15.00;99.90;;;;;;5106832;28;20118;-58
2023/05/09 04:50:47;;;;;;;72.50;38.92;;;15.00;99.90;;;;;;5128077;27;20119;-59
2023/05/09 04:53:13;;;;;;;71.88;38.33;;;15.00;99.90;;;;;;5131382;27;20287;-58
2023/05/09 04:55:38;;;;;;;57.38;34.03;;;15.00;99.90;;;;;;5123765;27;20035;-62
2023/05/09 04:58:04;;;;;;;65.47;36.22;;;15.00;99.90;;;;;;5127829;27;20115;-62
2023/05/09 05:00:30;;;;;;;70.18;37.03;;;15.00;99.90;;;;;;5125574;27;20052;-60
2023/05/09 05:02:56;;;;;;;67.28;36.30;;;15.00;99.90;;;;;;5127913;27;20039;-59
2023/05/09 05:05:22;;;;;;;67.95;36.92;;;15.00;99.90;;;;;;5122900;27;20047;-61
2023/05/09 05:07:48;;;;;;;67.82;38.28;;;15.10;99.90;;;;;;5125862;27;20062;-59
2023/05/09 05:10:13;;;;;;;73.10;39.45;;;15.10;99.90;;;;;;5107242;27;20042;-62
2023/05/09 05:12:39;;;;;;;67.32;38.35;;;15.00;99.90;;;;;;5126407;27;20037;-61
2023/05/09 05:15:05;;;;;;;73.60;41.65;;;15.10;99.90;;;;;;5125869;27;20035;-61
2023/05/09 05:17:31;;;;;;;74.70;39.45;;;15.10;99.90;;;;;;5129882;27;20148;-61
2023/05/09 05:19:56;;;;;;;74.18;38.25;;;15.00;99.90;;;;;;5131228;27;20045;-59
2023/05/09 05:22:23;;;;;;;77.78;41.20;;;15.00;99.90;;;;;;5125680;27;20343;-59
2023/05/09 05:24:49;;;;;;;70.80;39.30;;;15.10;99.90;;;;;;5107307;27;20081;-61
2023/05/09 05:27:14;;;;;;;79.03;40.75;;;15.10;99.90;;;;;;5131880;27;20438;-60
2023/05/09 05:29:40;;;;;;;74.47;38.80;;;15.10;99.90;;;;;;5103952;27;20070;-62
2023/05/09 05:32:06;;;;;;;75.38;40.03;;;15.10;99.90;;;;;;5132325;27;20385;-61
2023/05/09 05:34:31;;;;;;;63.03;36.08;;;15.10;99.90;;;;;;5128932;27;20125;-61
2023/05/09 05:36:57;;;;;;;72.43;39.67;;;15.10;99.90;;;;;;5123597;27;20227;-61
2023/05/09 05:39:23;;;;;;;77.75;41.60;;;15.20;99.90;;;;;;5108581;28;20379;-61
2023/05/09 05:41:50;;;;;;;80.10;42.90;;;15.30;99.90;;;;;;5128737;27;20118;-62
2023/05/09 05:44:16;;;;;;;75.47;42.45;;;15.30;99.90;;;;;;5112151;27;20051;-60
2023/05/09 05:46:42;;;;;;;84.00;44.70;;;15.40;99.90;;;;;;5135585;27;20039;-61
2023/05/09 05:49:07;;;;;;;77.10;42.08;;;15.40;99.90;;;;;;5118646;27;20116;-60
2023/05/09 05:51:33;;;;;;;75.65;42.05;;;15.40;99.90;;;;;;5127921;27;20046;-62
2023/05/09 05:54:02;;;;;;;83.63;44.75;;;15.50;99.90;;;;;;5116718;27;20055;-63
2023/05/09 05:56:27;;;;;;;80.80;44.63;;;15.50;99.90;;;;;;5119783;27;20043;-62
2023/05/09 05:58:53;;;;;;;74.85;41.28;;;15.50;99.90;;;;;;5123489;27;20031;-63
2023/05/09 06:01:19;;;;;;;86.45;45.63;;;15.50;99.90;;;;;;5117505;27;20035;-63
2023/05/09 06:03:45;;;;;;;79.07;42.05;;;15.50;99.90;;;;;;5127607;27;20038;-62
2023/05/09 06:06:10;;;;;;;75.35;43.20;;;15.50;99.90;;;;;;5124571;27;20524;-62
2023/05/09 06:08:36;;;;;;;76.50;41.08;;;15.50;99.90;;;;;;5119298;27;20035;-62
2023/05/09 06:11:02;;;;;;;83.93;44.67;;;15.50;99.90;;;;;;5124959;27;20116;-63
2023/05/09 06:13:27;;;;;;;80.30;44.05;;;15.60;99.90;;;;;;5126803;27;20035;-63
2023/05/09 06:15:56;;;;;;;82.30;44.88;;;15.60;99.90;;;;;;5120971;27;20135;-62
2023/05/09 06:18:23;;;;;;;77.20;43.08;;;15.60;99.90;;;;;;5124539;27;20126;-61
2023/05/09 06:20:48;;;;;;;78.93;43.95;;;15.60;99.90;;;;;;5102120;27;20138;-62
2023/05/09 06:23:14;;;;;;;78.78;42.22;;;15.70;99.90;;;;;;5125527;27;20066;-60
2023/05/09 06:25:40;;;;;;;72.95;40.92;;;15.70;99.90;;;;;;5122719;27;20474;-63
2023/05/09 06:28:06;;;;;;;83.68;45.92;;;15.70;99.90;;;;;;5121934;27;20087;-63
2023/05/09 06:30:31;;;;;;;82.43;45.15;;;15.80;99.90;;;;;;5117309;27;20252;-62
2023/05/09 06:32:57;;;;;;;82.45;44.22;;;15.80;99.90;;;;;;5122912;27;20486;-62
2023/05/09 06:35:23;;;;;;;78.05;42.55;;;15.80;99.90;;;;;;5101632;27;20045;-62
2023/05/09 06:37:49;;;;;;;81.28;44.47;;;15.80;99.90;;;;;;5104089;27;20069;-63
2023/05/09 06:40:15;;;;;;;76.63;42.92;;;15.90;99.90;;;;;;5122609;27;20053;-63
2023/05/09 06:42:41;;;;;;;79.72;44.72;;;15.90;99.90;;;;;;5125257;27;20134;-63
2023/05/09 06:45:07;;;;;;;82.25;44.05;;;15.90;99.90;;;;;;5118781;27;20151;-63
2023/05/09 06:47:32;;;;;;;79.05;43.70;;;15.90;99.90;;;;;;5122752;27;20035;-62
2023/05/09 06:49:58;;;;;;;80.35;44.30;;;16.00;99.90;;;;;;5118190;27;20038;-62
2023/05/09 06:52:24;;;;;;;80.25;43.60;;;16.00;99.90;;;;;;5122659;27;20914;-62
2023/05/09 06:54:49;;;;;;;80.15;45.30;;;16.00;99.90;;;;;;5123907;27;20055;-63
2023/05/09 06:57:15;;;;;;;75.10;42.13;;;16.00;99.90;;;;;;5104911;27;20131;-62
2023/05/09 06:59:41;;;;;;;83.38;46.25;;;16.00;99.90;;;;;;5102049;27;20560;-62
2023/05/09 07:02:07;;;;;;;83.18;47.05;;;16.00;99.90;;;;;;5118441;27;20609;-61
2023/05/09 07:04:33;;;;;;;77.75;45.20;;;16.10;99.90;;;;;;5117630;27;20188;-62
2023/05/09 07:06:59;;;;;;;76.15;43.60;;;16.10;99.90;;;;;;5125190;27;20191;-62
2023/05/09 07:09:27;;;;;;;78.63;44.85;;;16.20;99.90;;;;;;5121235;27;20401;-62
2023/05/09 07:11:54;;;;;;;80.35;46.08;;;16.20;99.90;;;;;;5121389;27;20336;-63
2023/05/09 07:14:20;;;;;;;85.07;44.67;;;16.30;99.90;;;;;;5124388;27;20078;-62
2023/05/09 07:16:45;;;;;;;73.90;44.55;;;16.30;99.90;;;;;;5119198;27;20323;-63
2023/05/09 07:19:11;;;;;;;75.75;44.55;;;16.40;99.90;;;;;;5117119;27;20595;-62
2023/05/09 07:21:37;;;;;;;80.85;46.20;;;16.40;99.90;;;;;;5113188;27;20665;-62
2023/05/09 07:24:03;;;;;;;73.82;45.28;;;16.40;99.90;;;;;;5121744;27;20039;-63
2023/05/09 07:26:29;;;;;;;78.25;46.80;;;16.50;99.90;;;;;;5121382;27;20039;-62
2023/05/09 07:28:54;;;;;;;79.07;45.05;;;16.50;99.90;;;;;;5124419;27;20039;-62
2023/05/09 07:31:20;;;;;;;81.32;47.33;;;16.50;99.90;;;;;;5121684;27;20035;-63
2023/05/09 07:33:46;;;;;;;80.32;45.47;;;16.60;99.90;;;;;;5123420;27;20058;-62
2023/05/09 07:36:13;;;;;;;80.72;48.90;;;16.60;99.90;;;;;;5119312;27;20091;-62
2023/05/09 07:38:39;;;;;;;75.40;44.97;;;16.60;99.90;;;;;;5123685;27;20585;-62
2023/05/09 07:41:05;;;;;;;74.90;46.70;;;16.60;99.90;;;;;;5128821;27;20031;-62
2023/05/09 07:43:31;;;;;;;73.60;45.55;;;16.50;99.90;;;;;;5126590;27;20532;-62
2023/05/09 07:45:57;;;;;;;79.43;44.92;;;16.60;99.90;;;;;;5127076;27;20035;-63
2023/05/09 07:48:22;;;;;;;75.40;46.80;;;16.60;99.90;;;;;;5119618;27;20097;-62
2023/05/09 07:50:48;;;;;;;65.40;41.67;;;16.60;99.90;;;;;;5120329;27;20600;-61
2023/05/09 07:53:15;;;;;;;70.28;42.35;;;16.60;99.90;;;;;;5121092;27;20474;-62
2023/05/09 07:55:43;;;;;;;75.55;44.97;;;16.60;99.90;;;;;;5120121;27;20043;-62
2023/05/09 07:58:09;;;;;;;74.75;43.30;;;16.50;99.90;;;;;;5112521;27;20035;-62
2023/05/09 08:00:34;;;;;;;69.85;43.45;;;16.60;99.90;;;;;;5118166;27;20426;-62
2023/05/09 08:03:00;;;;;;;68.97;41.55;;;16.50;99.90;;;;;;5119965;27;20035;-61
2023/05/09 08:05:26;;;;;;;66.47;40.30;;;16.60;99.90;;;;;;5127184;27;20039;-61
2023/05/09 08:07:52;;;;;;;63.67;40.55;;;16.50;99.90;;;;;;5100139;27;20074;-61
2023/05/09 08:10:17;;;;;;;61.45;39.78;;;16.50;99.90;;;;;;5117472;27;20043;-61
2023/05/09 08:12:43;;;;;;;61.40;40.22;;;16.50;99.90;;;;;;5123178;28;20123;-62
2023/05/09 08:15:09;;;;;;;59.95;38.33;;;16.60;99.90;;;;;;5123868;27;20435;-60
2023/05/09 08:17:35;;;;;;;63.58;38.72;;;16.50;99.90;;;;;;5125038;27;20047;-61
2023/05/09 08:20:00;;;;;;;62.28;38.28;;;16.50;99.90;;;;;;5104997;28;20650;-59
2023/05/09 08:22:26;;;;;;;60.75;37.50;;;16.50;99.90;;;;;;5120168;27;20043;-61
2023/05/09 08:24:52;;;;;;;55.63;36.75;;;16.50;99.90;;;;;;5126065;27;20057;-62
2023/05/09 08:27:17;;;;;;;56.25;35.85;;;16.60;99.90;;;;;;5121946;27;20043;-63
2023/05/09 08:29:43;;;;;;;53.45;34.78;;;16.50;99.90;;;;;;5120615;27;20071;-62
2023/05/09 08:32:09;;;;;;;59.50;35.83;;;16.60;99.90;;;;;;5123919;27;20051;-60
2023/05/09 08:34:35;;;;;;;57.03;37.15;;;16.60;99.90;;;;;;5097300;28;20121;-62
2023/05/09 08:37:01;;;;;;;54.85;35.05;;;16.60;99.90;;;;;;5114355;27;20129;-61
2023/05/09 08:39:27;;;;;;;54.90;34.58;;;16.70;99.90;;;;;;5115799;28;20493;-60
2023/05/09 08:41:57;;;;;;;53.78;33.30;;;16.70;99.90;;;;;;5116649;27;20043;-61
2023/05/09 08:44:24;;;;;;;49.03;33.08;;;16.80;99.90;;;;;;5121451;28;20035;-62
2023/05/09 08:46:57;;;;;;;51.58;33.85;;;16.80;99.90;;;;;;5119274;27;20752;-61
2023/05/09 08:49:29;;;;;;;44.53;28.02;;;16.90;99.90;;;;;;5136912;27;20039;-61
2023/05/09 08:51:58;;;;;;;41.13;28.08;;;16.90;99.90;;;;;;5121704;28;20556;-61
2023/05/09 08:54:24;;;;;;;42.80;26.15;;;16.90;99.90;;;;;;5121165;27;21161;-63
2023/05/09 08:56:50;;;;;;;36.03;23.77;;;17.00;99.90;;;;;;5127968;27;20034;-59
2023/05/09 08:59:17;;;;;;;34.33;23.38;;;17.00;99.90;;;;;;5098756;27;20112;-60
2023/05/09 09:01:43;;;;;;;33.15;22.52;;;17.10;99.90;;;;;;5119318;27;20095;-60
2023/05/09 09:04:10;;;;;;;30.48;20.55;;;17.10;99.90;;;;;;5126391;27;20107;-61
2023/05/09 09:06:38;;;;;;;32.25;21.73;;;17.20;99.90;;;;;;5122619;27;20515;-60
2023/05/09 09:09:07;;;;;;;32.45;20.52;;;17.30;99.90;;;;;;5102954;27;20039;-63
2023/05/09 09:11:34;;;;;;;33.47;20.92;;;17.30;99.90;;;;;;5124656;27;20125;-60
2023/05/09 09:14:03;;;;;;;34.40;19.95;;;17.40;99.90;;;;;;5124984;27;20032;-62
2023/05/09 09:16:30;;;;;;;30.70;19.30;;;17.40;99.90;;;;;;5122210;27;20040;-60
2023/05/09 09:18:57;;;;;;;31.40;20.45;;;17.50;99.90;;;;;;5124866;27;20123;-61
2023/05/09 09:21:23;;;;;;;27.35;20.35;;;17.50;99.90;;;;;;5119370;27;20042;-62
2023/05/09 09:23:50;;;;;;;27.90;19.98;;;17.50;99.90;;;;;;5103743;27;20047;-64
2023/05/09 09:26:16;;;;;;;30.55;19.92;;;17.50;99.90;;;;;;5121321;27;20047;-61
2023/05/09 09:28:42;;;;;;;31.42;20.02;;;17.60;99.90;;;;;;5121910;27;20046;-63
2023/05/09 09:31:30;;;;;;;27.42;19.55;;;17.60;99.90;;;;;;5116687;27;20041;-62
2023/05/09 09:34:02;;;;;;;28.27;19.98;;;17.70;99.90;;;;;;5118764;27;20045;-65
2023/05/09 09:36:31;;;;;;;27.17;19.30;;;17.70;99.90;;;;;;5121171;27;20039;-61
2023/05/09 09:39:03;;;;;;;25.90;20.05;;;17.70;99.90;;;;;;5123486;27;20043;-61
2023/05/09 09:41:39;;;;;;;27.40;19.27;;;17.80;99.90;;;;;;5120140;27;20039;-62
2023/05/09 09:44:11;;;;;;;30.30;20.00;;;17.80;99.90;;;;;;5119167;27;20027;-61
2023/05/09 09:46:43;;;;;;;26.55;18.23;;;17.80;99.90;;;;;;5120173;27;20138;-62
2023/05/09 09:49:13;;;;;;;28.92;19.65;;;17.80;99.90;;;;;;5125764;27;20054;-61
2023/05/09 09:51:40;;;;;;;25.10;17.88;;;17.80;99.90;;;;;;5121975;27;20043;-61
2023/05/09 09:54:07;;;;;;;25.73;18.33;;;17.90;99.90;;;;;;5100000;27;20130;-63
2023/05/09 09:56:43;;;;;;;26.77;18.42;;;17.90;99.90;;;;;;5118652;27;20528;-60
2023/05/09 09:59:17;;;;;;;31.95;19.98;;;17.90;99.90;;;;;;5114002;27;21187;-61
2023/05/09 10:02:06;;;;;;;26.88;20.17;;;17.90;99.90;;;;;;5118457;27;20042;-61
2023/05/09 10:04:37;;;;;;;27.85;19.67;;;18.00;99.90;;;;;;5116470;27;20068;-61
2023/05/09 10:07:05;;;;;;;28.75;19.70;;;17.90;99.90;;;;;;5118015;27;20043;-60
2023/05/09 10:09:33;;;;;;;26.17;18.92;;;17.90;99.90;;;;;;5117780;27;20036;-61
2023/05/09 10:12:05;;;;;;;29.65;20.67;;;17.90;99.90;;;;;;5119157;27;20043;-61
2023/05/09 10:14:32;;;;;;;27.90;19.98;;;18.00;99.90;;;;;;5120716;27;20036;-63
2023/05/09 10:17:01;;;;;;;29.10;19.63;;;17.90;99.90;;;;;;5123241;27;20032;-60
2023/05/09 10:19:29;;;;;;;29.95;20.35;;;17.90;99.90;;;;;;5118689;27;20121;-62
2023/05/09 10:22:09;;;;;;;30.90;19.48;;;17.90;99.90;;;;;;5095754;27;20355;-62
2023/05/09 10:24:50;;;;;;;29.60;19.33;;;18.00;99.90;;;;;;5122379;27;20046;-62
2023/05/09 10:27:20;;;;;;;30.13;20.27;;;17.90;99.90;;;;;;5119028;27;20051;-62
2023/05/09 10:30:12;;;;;;;28.45;19.67;;;17.90;99.90;;;;;;5121565;27;20047;-62
2023/05/09 10:32:50;;;;;;;28.60;19.08;;;18.00;99.90;;;;;;5119762;27;20132;-63
2023/05/09 10:35:18;;;;;;;28.02;19.75;;;18.00;99.90;;;;;;5119768;27;20486;-63
2023/05/09 10:37:47;;;;;;;26.80;19.85;;;18.00;99.90;;;;;;5121558;27;20141;-63
2023/05/09 10:40:14;;;;;;;26.15;19.67;;;18.00;99.90;;;;;;5117381;27;20049;-62
2023/05/09 10:42:43;;;;;;;25.55;18.48;;;18.10;99.90;;;;;;5120254;27;20109;-62
2023/05/09 10:45:11;;;;;;;29.35;20.58;;;18.10;99.90;;;;;;5103646;27;20055;-61
2023/05/09 10:47:38;;;;;;;26.17;19.85;;;18.10;99.90;;;;;;5097267;27;20107;-62
2023/05/09 10:50:07;;;;;;;25.80;19.20;;;18.10;99.90;;;;;;5115827;27;21339;-60
2023/05/09 10:52:33;;;;;;;25.92;19.52;;;18.00;99.90;;;;;;5119553;27;20039;-62
2023/05/09 10:55:03;;;;;;;26.17;18.50;;;18.00;99.90;;;;;;5119594;27;20066;-62
2023/05/09 10:57:30;;;;;;;26.08;20.05;;;18.00;99.90;;;;;;5120517;27;20083;-61
2023/05/09 10:59:57;;;;;;;22.70;18.70;;;18.00;99.90;;;;;;5120371;27;20062;-61
2023/05/09 11:02:29;;;;;;;26.23;19.15;;;18.00;99.90;;;;;;5118409;27;20051;-60
2023/05/09 11:05:16;;;;;;;24.48;19.60;;;17.90;99.90;;;;;;5117943;27;20185;-62
2023/05/09 11:07:42;;;;;;;25.25;18.55;;;17.90;99.90;;;;;;5116332;27;20122;-62
2023/05/09 11:10:19;;;;;;;24.23;19.35;;;17.80;99.90;;;;;;5121806;27;20118;-62
2023/05/09 11:12:56;;;;;;;25.83;20.30;;;17.80;99.90;;;;;;5113216;27;20053;-62
2023/05/09 11:15:22;;;;;;;26.02;19.92;;;17.70;99.90;;;;;;5122409;27;20023;-61
2023/05/09 11:18:03;;;;;;;25.38;19.58;;;17.70;99.90;;;;;;5120333;27;20119;-60
2023/05/09 11:20:32;;;;;;;25.55;19.80;;;17.70;99.90;;;;;;5121044;27;20031;-61
2023/05/09 11:22:58;;;;;;;25.90;20.75;;;17.60;99.90;;;;;;5116397;27;20044;-61
2023/05/09 11:25:28;;;;;;;26.48;20.77;;;17.70;99.90;;;;;;5119257;27;20047;-62
2023/05/09 11:27:59;;;;;;;27.63;20.33;;;17.70;99.90;;;;;;5120229;27;20034;-61
2023/05/09 11:30:42;;;;;;;30.13;21.13;;;17.70;99.90;;;;;;5121114;27;20427;-62
2023/05/09 11:33:23;;;;;;;28.42;21.77;;;17.70;99.90;;;;;;5102207;27;20039;-61
2023/05/09 11:36:14;;;;;;;30.60;23.10;;;17.70;99.90;;;;;;5117985;27;20063;-62
2023/05/09 11:38:47;;;;;;;27.60;21.52;;;17.70;99.90;;;;;;5117552;27;20127;-62
2023/05/09 11:41:14;;;;;;;32.65;24.33;;;17.70;99.90;;;;;;5117007;27;20367;-62
2023/05/09 11:43:43;;;;;;;31.67;22.88;;;17.70;99.90;;;;;;5119129;27;20039;-62
2023/05/09 11:46:08;;;;;;;28.58;22.10;;;17.70;99.90;;;;;;5121322;27;20031;-62
2023/05/09 11:48:38;;;;;;;29.20;22.27;;;17.70;99.90;;;;;;5116420;27;20039;-61
2023/05/09 11:51:04;;;;;;;29.23;21.60;;;17.70;99.90;;;;;;5118959;27;20057;-62
2023/05/09 11:53:31;;;;;;;32.10;22.42;;;17.70;99.90;;;;;;5118825;27;20023;-63
2023/05/09 11:55:57;;;;;;;30.52;23.00;;;17.70;99.90;;;;;;5098802;28;20062;-61
2023/05/09 11:58:22;;;;;;;32.22;24.17;;;17.70;99.90;;;;;;5114894;27;20115;-62
2023/05/09 12:00:48;;;;;;;27.38;23.65;;;17.60;99.90;;;;;;5117908;28;20043;-61
2023/05/09 12:03:14;;;;;;;26.70;22.95;;;17.60;99.90;;;;;;5122167;28;20043;-60
2023/05/09 12:05:41;;;;;;;26.83;21.85;;;17.60;99.90;;;;;;5122325;27;20480;-59
2023/05/09 12:08:08;;;;;;;27.38;22.33;;;17.50;99.90;;;;;;5120167;28;20397;-61
2023/05/09 12:10:37;;;;;;;26.58;20.98;;;17.50;99.90;;;;;;5121203;28;20313;-60
2023/05/09 12:13:03;;;;;;;26.27;22.27;;;17.50;99.90;;;;;;5119458;28;20043;-59
2023/05/09 12:15:29;;;;;;;29.00;22.88;;;17.50;99.90;;;;;;5125452;28;20402;-60
2023/05/09 12:18:03;;;;;;;23.77;21.25;;;17.50;99.90;;;;;;5119696;27;20038;-61
2023/05/09 12:20:51;;;;;;;26.45;21.45;;;17.50;99.90;;;;;;5119822;28;20043;-62
2023/05/09 12:23:17;;;;;;;27.88;22.17;;;17.50;99.90;;;;;;5123316;27;20111;-59
2023/05/09 12:25:53;;;;;;;28.27;22.25;;;17.50;99.90;;;;;;5123167;27;20095;-59
2023/05/09 12:28:23;;;;;;;24.63;21.83;;;17.40;99.90;;;;;;5141113;27;20043;-58
2023/05/09 12:30:50;;;;;;;27.45;22.85;;;17.50;99.90;;;;;;5130161;27;20536;-60